createdAt,value
2022-09-22T00:02:21.927Z,8.96
2022-09-22T00:04:50.475Z,8.95
2022-09-22T00:07:20.256Z,8.93
2022-09-22T00:09:48.856Z,8.91
2022-09-22T00:12:17.326Z,8.88
2022-09-22T00:14:45.969Z,8.87
2022-09-22T00:17:14.538Z,8.85
2022-09-22T00:19:42.974Z,8.83
2022-09-22T00:22:11.226Z,8.80
2022-09-22T00:24:43.009Z,8.79
2022-09-22T00:27:11.531Z,8.77
2022-09-22T00:29:39.899Z,8.76
2022-09-22T00:32:09.071Z,8.75
2022-09-22T00:34:37.367Z,8.73
2022-09-22T00:37:05.734Z,8.71
2022-09-22T00:39:34.014Z,8.69
2022-09-22T00:42:04.399Z,8.67
2022-09-22T00:44:39.379Z,8.67
2022-09-22T00:47:16.834Z,8.64
2022-09-22T00:49:50.466Z,8.61
2022-09-22T00:52:23.993Z,8.60
2022-09-22T00:54:55.574Z,8.59
2022-09-22T00:57:31.121Z,8.56
2022-09-22T01:00:00.015Z,8.55
2022-09-22T01:02:28.328Z,8.52
2022-09-22T01:04:56.639Z,8.52
2022-09-22T01:07:27.687Z,8.49
2022-09-22T01:09:56.689Z,8.47
2022-09-22T01:12:27.721Z,8.45
2022-09-22T01:15:21.597Z,8.41
2022-09-22T01:18:02.805Z,8.39
2022-09-22T01:21:07.857Z,8.37
2022-09-22T01:24:17.462Z,8.35
2022-09-22T01:27:12.757Z,8.33
2022-09-22T01:30:08.798Z,8.32
2022-09-22T01:32:43.833Z,8.29
2022-09-22T01:35:20.727Z,8.28
2022-09-22T01:37:59.176Z,8.27
2022-09-22T01:40:35.458Z,8.26
2022-09-22T01:43:13.198Z,8.24
2022-09-22T01:45:48.361Z,8.24
2022-09-22T01:48:21.063Z,8.23
2022-09-22T01:50:53.863Z,8.24
2022-09-22T01:53:25.762Z,8.23
2022-09-22T01:55:59.778Z,8.21
2022-09-22T01:58:33.300Z,8.20
2022-09-22T02:01:12.265Z,8.19
2022-09-22T02:03:46.918Z,8.18
2022-09-22T02:06:20.857Z,8.17
2022-09-22T02:08:54.161Z,8.15
2022-09-22T02:11:22.745Z,8.15
2022-09-22T02:13:51.208Z,8.13
2022-09-22T02:16:24.806Z,8.12
2022-09-22T02:18:57.408Z,8.13
2022-09-22T02:21:31.078Z,8.12
2022-09-22T02:24:00.939Z,8.10
2022-09-22T02:26:32.788Z,8.10
2022-09-22T02:29:03.961Z,8.09
2022-09-22T02:31:37.681Z,8.09
2022-09-22T02:34:07.390Z,8.08
2022-09-22T02:36:47.661Z,8.08
2022-09-22T02:39:23.206Z,8.07
2022-09-22T02:42:11.731Z,8.07
2022-09-22T02:44:47.995Z,8.06
2022-09-22T02:47:23.297Z,8.05
2022-09-22T02:49:53.756Z,8.05
2022-09-22T02:52:25.363Z,8.04
2022-09-22T02:54:55.262Z,8.03
2022-09-22T02:57:24.085Z,8.03
2022-09-22T02:59:52.374Z,8.02
2022-09-22T03:02:21.998Z,8.02
2022-09-22T03:04:51.521Z,8.02
2022-09-22T03:07:20.071Z,8.01
2022-09-22T03:09:48.297Z,8.02
2022-09-22T03:12:16.602Z,8.00
2022-09-22T03:14:44.933Z,8.00
2022-09-22T03:17:13.232Z,7.99
2022-09-22T03:19:42.885Z,7.99
2022-09-22T03:22:11.137Z,8.00
2022-09-22T03:24:39.586Z,7.98
2022-09-22T03:27:07.898Z,7.98
2022-09-22T03:29:36.150Z,7.97
2022-09-22T03:32:04.588Z,7.97
2022-09-22T03:34:32.838Z,7.95
2022-09-22T03:37:02.536Z,7.94
2022-09-22T03:39:30.836Z,7.94
2022-09-22T03:41:59.115Z,7.94
2022-09-22T03:44:27.551Z,7.93
2022-09-22T03:46:55.816Z,7.92
2022-09-22T03:49:24.932Z,7.92
2022-09-22T03:51:53.863Z,7.90
2022-09-22T03:54:23.519Z,7.89
2022-09-22T03:56:52.035Z,7.87
2022-09-22T03:59:20.298Z,7.85
2022-09-22T04:01:48.686Z,7.84
2022-09-22T04:04:17.116Z,7.82
2022-09-22T04:06:45.386Z,7.80
2022-09-22T04:09:17.504Z,7.80
2022-09-22T04:11:47.263Z,7.77
2022-09-22T04:14:15.537Z,7.76
2022-09-22T04:16:43.871Z,7.74
2022-09-22T04:19:12.288Z,7.71
2022-09-22T04:21:41.026Z,7.71
2022-09-22T04:24:11.462Z,7.69
2022-09-22T04:26:47.791Z,7.68
2022-09-22T04:29:29.873Z,7.66
2022-09-22T04:31:58.100Z,7.65
2022-09-22T04:34:26.355Z,7.63
2022-09-22T04:36:54.605Z,7.62
2022-09-22T04:39:23.935Z,7.60
2022-09-22T04:41:52.459Z,7.58
2022-09-22T04:44:20.732Z,7.56
2022-09-22T04:46:50.886Z,7.53
2022-09-22T04:49:19.667Z,7.51
2022-09-22T04:51:48.281Z,7.49
2022-09-22T04:54:16.618Z,7.47
2022-09-22T04:56:45.328Z,7.46
2022-09-22T04:59:13.587Z,7.43
2022-09-22T05:01:41.945Z,7.42
2022-09-22T05:04:11.673Z,7.40
2022-09-22T05:06:41.674Z,7.38
2022-09-22T05:09:10.247Z,7.37
2022-09-22T05:11:39.480Z,7.35
2022-09-22T05:14:07.742Z,7.34
2022-09-22T05:16:36.107Z,7.31
2022-09-22T05:19:04.452Z,7.29
2022-09-22T05:21:35.708Z,7.28
2022-09-22T05:24:04.685Z,7.27
2022-09-22T05:26:32.952Z,7.27
2022-09-22T05:29:01.226Z,7.25
2022-09-22T05:31:29.517Z,7.24
2022-09-22T05:33:57.822Z,7.24
2022-09-22T05:36:26.175Z,7.23
2022-09-22T05:38:55.784Z,7.21
2022-09-22T05:41:25.561Z,7.20
2022-09-22T05:43:54.050Z,7.20
2022-09-22T05:46:22.321Z,7.19
2022-09-22T05:48:50.607Z,7.19
2022-09-22T05:51:18.891Z,7.19
2022-09-22T05:53:47.179Z,7.19
2022-09-22T05:56:16.829Z,7.20
2022-09-22T05:58:45.144Z,7.20
2022-09-22T06:01:13.480Z,7.21
2022-09-22T06:03:41.855Z,7.21
2022-09-22T06:06:10.166Z,7.24
2022-09-22T06:08:38.423Z,7.25
2022-09-22T06:11:06.914Z,7.26
2022-09-22T06:13:36.650Z,7.28
2022-09-22T06:16:05.260Z,7.32
2022-09-22T06:18:33.577Z,7.33
2022-09-22T06:21:01.869Z,7.36
2022-09-22T06:23:31.921Z,7.39
2022-09-22T06:26:00.373Z,7.41
2022-09-22T06:28:28.684Z,7.45
2022-09-22T06:31:01.565Z,7.46
2022-09-22T06:33:30.440Z,7.50
2022-09-22T06:36:00.934Z,7.54
2022-09-22T06:38:31.857Z,7.56
2022-09-22T06:41:03.001Z,7.61
2022-09-22T06:43:32.911Z,7.65
2022-09-22T06:46:02.730Z,7.70
2022-09-22T06:48:31.995Z,7.73
2022-09-22T06:51:00.270Z,7.79
2022-09-22T06:53:28.583Z,7.84
2022-09-22T06:55:59.060Z,7.89
2022-09-22T06:58:28.951Z,7.94
2022-09-22T07:01:09.647Z,7.99
2022-09-22T07:03:41.608Z,8.05
2022-09-22T07:06:10.948Z,8.11
2022-09-22T07:08:39.449Z,8.18
2022-09-22T07:11:09.331Z,8.25
2022-09-22T07:13:39.869Z,8.32
2022-09-22T07:16:10.386Z,8.39
2022-09-22T07:18:43.797Z,8.50
2022-09-22T07:21:14.272Z,8.59
2022-09-22T07:23:44.176Z,8.71
2022-09-22T07:26:14.582Z,8.81
2022-09-22T07:28:43.474Z,8.90
2022-09-22T07:31:13.683Z,9.00
2022-09-22T07:33:44.761Z,9.11
2022-09-22T07:36:14.732Z,9.21
2022-09-22T07:38:44.535Z,9.32
2022-09-22T07:41:14.595Z,9.40
2022-09-22T07:43:43.546Z,9.50
2022-09-22T07:46:13.194Z,9.60
2022-09-22T07:48:47.800Z,9.70
2022-09-22T07:51:19.127Z,9.81
2022-09-22T07:53:49.202Z,9.89
2022-09-22T07:56:21.154Z,9.99
2022-09-22T07:58:51.085Z,10.08
2022-09-22T08:01:21.559Z,10.16
2022-09-22T08:03:52.114Z,10.26
2022-09-22T08:06:23.793Z,10.35
2022-09-22T08:08:56.301Z,10.45
2022-09-22T08:11:26.539Z,10.55
2022-09-22T08:13:57.119Z,10.66
2022-09-22T08:16:28.301Z,10.73
2022-09-22T08:18:59.621Z,10.83
2022-09-22T08:21:35.591Z,10.91
2022-09-22T08:24:05.040Z,11.00
2022-09-22T08:26:36.640Z,11.09
2022-09-22T08:29:06.689Z,11.19
2022-09-22T08:31:36.864Z,11.26
2022-09-22T08:34:06.718Z,11.35
2022-09-22T08:36:35.053Z,11.42
2022-09-22T08:39:04.421Z,11.50
2022-09-22T08:41:41.295Z,11.58
2022-09-22T08:44:22.843Z,11.67
2022-09-22T08:46:51.776Z,11.74
2022-09-22T08:49:44.181Z,11.83
2022-09-22T08:52:18.229Z,11.92
2022-09-22T08:54:46.799Z,12.00
2022-09-22T08:57:35.647Z,12.09
2022-09-22T09:00:07.286Z,12.22
2022-09-22T09:02:41.160Z,12.30
2022-09-22T09:05:44.881Z,12.41
2022-09-22T09:08:46.419Z,12.53
2022-09-22T09:11:26.991Z,12.63
2022-09-22T09:14:11.867Z,12.72
2022-09-22T09:16:48.091Z,12.82
2022-09-22T09:19:20.257Z,12.91
2022-09-22T09:21:55.094Z,12.98
2022-09-22T09:27:24.113Z,13.18
2022-09-22T09:30:01.339Z,13.25
2022-09-22T09:32:38.582Z,13.33
2022-09-22T09:35:12.870Z,13.41
2022-09-22T09:37:42.275Z,13.51
2022-09-22T09:40:15.778Z,13.59
2022-09-22T09:42:45.458Z,13.68
2022-09-22T09:45:15.614Z,13.78
2022-09-22T09:48:00.079Z,13.87
2022-09-22T09:50:32.354Z,13.95
2022-09-22T09:53:01.069Z,14.02
2022-09-22T09:55:31.674Z,14.09
2022-09-22T09:58:05.075Z,14.15
2022-09-22T10:00:34.365Z,14.21
2022-09-22T10:03:14.354Z,14.29
2022-09-22T10:05:43.431Z,14.35
2022-09-22T10:08:19.999Z,14.41
2022-09-22T10:10:50.053Z,14.50
2022-09-22T10:13:33.310Z,14.56
2022-09-22T10:16:23.040Z,14.63
2022-09-22T10:18:52.816Z,14.66
2022-09-22T10:21:22.814Z,14.73
2022-09-22T10:23:52.094Z,14.82
2022-09-22T10:26:26.243Z,14.88
2022-09-22T10:29:18.193Z,14.93
2022-09-22T10:32:05.266Z,15.03
2022-09-22T10:34:36.383Z,15.11
2022-09-22T10:37:10.639Z,15.19
2022-09-22T10:39:45.613Z,15.26
2022-09-22T10:42:28.617Z,15.37
2022-09-22T10:45:01.929Z,15.47
2022-09-22T10:47:51.791Z,15.55
2022-09-22T10:50:38.254Z,15.59
2022-09-22T10:53:27.370Z,15.69
2022-09-22T10:56:05.489Z,15.79
2022-09-22T10:58:53.725Z,15.85
2022-09-22T11:01:39.567Z,15.94
2022-09-22T11:04:24.936Z,16.06
2022-09-22T11:07:30.507Z,16.15
2022-09-22T11:10:27.159Z,16.25
2022-09-22T11:13:05.361Z,16.34
2022-09-22T11:15:45.750Z,16.50
2022-09-22T11:18:31.041Z,16.62
2022-09-22T11:21:09.865Z,16.72
2022-09-22T11:24:02.518Z,16.80
2022-09-22T11:26:48.212Z,16.89
2022-09-22T11:29:47.362Z,16.99
2022-09-22T11:32:34.102Z,17.10
2022-09-22T11:35:25.304Z,17.20
2022-09-22T11:38:09.376Z,17.31
2022-09-22T11:41:01.001Z,17.44
2022-09-22T11:43:41.350Z,17.53
2022-09-22T11:46:15.357Z,17.62
2022-09-22T11:48:58.949Z,17.72
2022-09-22T11:51:42.663Z,17.79
2022-09-22T11:54:27.293Z,17.87
2022-09-22T11:57:00.041Z,17.96
2022-09-22T11:59:39.441Z,18.05
2022-09-22T12:02:17.221Z,18.15
2022-09-22T12:04:53.685Z,18.19
2022-09-22T12:07:29.361Z,18.23
2022-09-22T12:10:01.879Z,18.33
2022-09-22T12:12:32.524Z,18.41
2022-09-22T12:15:08.418Z,18.43
2022-09-22T12:17:41.971Z,18.52
2022-09-22T12:20:27.406Z,18.61
2022-09-22T12:23:15.423Z,18.70
2022-09-22T12:25:49.105Z,18.78
2022-09-22T12:28:25.692Z,18.91
2022-09-22T12:31:04.908Z,19.04
2022-09-22T12:33:37.014Z,19.13
2022-09-22T12:36:07.814Z,19.24
2022-09-22T12:38:36.153Z,19.35
2022-09-22T12:41:05.457Z,19.45
2022-09-22T12:43:35.865Z,19.47
2022-09-22T12:46:13.075Z,19.51
2022-09-22T12:48:46.307Z,19.59
2022-09-22T12:51:34.731Z,19.64
2022-09-22T12:54:38.630Z,19.63
2022-09-22T12:57:29.509Z,19.70
2022-09-22T13:00:22.871Z,19.85
2022-09-22T13:02:51.488Z,19.96
2022-09-22T13:05:36.073Z,20.13
2022-09-22T13:08:05.748Z,20.18
2022-09-22T13:10:52.516Z,20.26
2022-09-22T13:13:42.358Z,20.42
2022-09-22T13:16:34.724Z,20.62
2022-09-22T13:19:03.991Z,20.77
2022-09-22T13:21:34.455Z,20.88
2022-09-22T13:24:07.306Z,20.97
2022-09-22T13:26:37.944Z,21.02
2022-09-22T13:29:13.738Z,21.04
2022-09-22T13:31:44.389Z,21.10
2022-09-22T13:34:26.634Z,21.19
2022-09-22T13:37:00.261Z,21.32
2022-09-22T13:39:34.989Z,21.46
2022-09-22T13:42:07.293Z,21.58
2022-09-22T13:44:39.869Z,21.65
2022-09-22T13:47:17.064Z,21.77
2022-09-22T13:49:49.555Z,21.82
2022-09-22T13:52:22.490Z,21.91
2022-09-22T13:54:56.908Z,22.04
2022-09-22T13:57:28.982Z,22.11
2022-09-22T13:59:58.594Z,22.20
2022-09-22T14:02:31.929Z,22.33
2022-09-22T14:05:03.750Z,22.43
2022-09-22T14:07:38.345Z,22.32
2022-09-22T14:10:19.315Z,22.27
2022-09-22T14:12:48.180Z,22.25
2022-09-22T14:15:40.145Z,22.32
2022-09-22T14:18:18.826Z,22.46
2022-09-22T14:20:48.357Z,22.61
2022-09-22T14:23:22.066Z,22.76
2022-09-22T14:25:51.699Z,22.83
2022-09-22T14:28:24.891Z,22.84
2022-09-22T14:30:53.762Z,22.89
2022-09-22T14:33:25.716Z,22.98
2022-09-22T14:36:01.331Z,23.09
2022-09-22T14:38:34.266Z,23.18
2022-09-22T14:41:04.240Z,23.25
2022-09-22T14:43:42.165Z,23.38
2022-09-22T14:46:23.919Z,23.52
2022-09-22T14:48:52.304Z,23.52
2022-09-22T14:51:23.535Z,23.52
2022-09-22T14:53:55.348Z,23.55
2022-09-22T14:56:28.834Z,23.62
2022-09-22T14:59:02.412Z,23.62
2022-09-22T15:01:50.801Z,23.59
2022-09-22T15:04:23.275Z,23.59
2022-09-22T15:06:56.193Z,23.67
2022-09-22T15:09:27.536Z,23.79
2022-09-22T15:12:00.327Z,23.91
2022-09-22T15:14:44.133Z,24.00
2022-09-22T15:17:52.891Z,24.08
2022-09-22T15:20:21.283Z,24.17
2022-09-22T15:22:49.983Z,24.24
2022-09-22T15:25:18.494Z,24.30
2022-09-22T15:27:51.566Z,24.38
2022-09-22T15:30:20.743Z,24.44
2022-09-22T15:32:49.564Z,24.49
2022-09-22T15:35:20.474Z,24.54
2022-09-22T15:37:50.593Z,24.54
2022-09-22T15:40:21.499Z,24.44
2022-09-22T15:43:11.641Z,24.38
2022-09-22T15:45:47.529Z,24.23
2022-09-22T15:48:23.790Z,24.17
2022-09-22T15:50:52.359Z,24.07
2022-09-22T15:53:20.668Z,24.02
2022-09-22T15:55:48.953Z,23.97
2022-09-22T15:58:22.800Z,23.95
2022-09-22T16:00:51.656Z,23.92
2022-09-22T16:03:23.792Z,23.84
2022-09-22T16:05:57.017Z,23.71
2022-09-22T16:08:29.542Z,23.53
2022-09-22T16:10:58.313Z,23.29
2022-09-22T16:13:28.079Z,23.02
2022-09-22T16:15:56.558Z,22.76
2022-09-22T16:18:25.400Z,22.51
2022-09-22T16:21:02.998Z,22.27
2022-09-22T16:23:31.418Z,22.04
2022-09-22T16:25:59.840Z,21.82
2022-09-22T16:28:29.474Z,21.63
2022-09-22T16:31:02.850Z,21.47
2022-09-22T16:33:31.234Z,21.30
2022-09-22T16:35:59.631Z,21.14
2022-09-22T16:38:29.086Z,20.96
2022-09-22T16:41:05.299Z,20.78
2022-09-22T16:43:35.206Z,20.63
2022-09-22T16:46:20.901Z,20.48
2022-09-22T16:48:50.992Z,20.31
2022-09-22T16:51:19.377Z,20.18
2022-09-22T16:53:52.707Z,20.03
2022-09-22T16:56:21.967Z,19.88
2022-09-22T16:58:52.063Z,19.74
2022-09-22T17:01:20.961Z,19.60
2022-09-22T17:03:50.625Z,19.47
2022-09-22T17:06:23.053Z,19.32
2022-09-22T17:08:52.885Z,19.16
2022-09-22T17:11:29.600Z,19.03
2022-09-22T17:14:01.370Z,18.89
2022-09-22T17:16:30.919Z,18.73
2022-09-22T17:19:02.453Z,18.59
2022-09-22T17:21:34.443Z,18.44
2022-09-22T17:24:04.399Z,18.30
2022-09-22T17:26:35.456Z,18.16
2022-09-22T17:29:06.057Z,18.01
2022-09-22T17:31:35.939Z,17.86
2022-09-22T17:34:04.489Z,17.71
2022-09-22T17:36:33.582Z,17.55
2022-09-22T17:39:02.269Z,17.41
2022-09-22T17:41:32.858Z,17.28
2022-09-22T17:44:03.275Z,17.14
2022-09-22T17:46:35.116Z,17.00
2022-09-22T17:49:20.824Z,16.88
2022-09-22T17:52:08.048Z,16.72
2022-09-22T17:54:55.682Z,16.57
2022-09-22T17:57:25.917Z,16.43
2022-09-22T17:59:56.308Z,16.32
2022-09-22T18:02:28.066Z,16.21
2022-09-22T18:04:56.902Z,16.10
2022-09-22T18:07:26.866Z,16.00
2022-09-22T18:09:55.897Z,15.88
2022-09-22T18:12:25.985Z,15.79
2022-09-22T18:14:55.897Z,15.68
2022-09-22T18:17:29.066Z,15.57
2022-09-22T18:19:58.482Z,15.45
2022-09-22T18:22:29.695Z,15.36
2022-09-22T18:24:58.026Z,15.26
2022-09-22T18:27:27.918Z,15.16
2022-09-22T18:29:58.624Z,15.07
2022-09-22T18:32:30.393Z,14.98
2022-09-22T18:34:58.654Z,14.90
2022-09-22T18:37:27.261Z,14.84
2022-09-22T18:39:55.770Z,14.77
2022-09-22T18:42:27.450Z,14.69
2022-09-22T18:44:55.763Z,14.63
2022-09-22T18:47:24.141Z,14.58
2022-09-22T18:49:53.891Z,14.51
2022-09-22T18:52:24.250Z,14.43
2022-09-22T18:54:54.452Z,14.35
2022-09-22T18:57:25.424Z,14.27
2022-09-22T18:59:57.414Z,14.21
2022-09-22T19:02:25.815Z,14.13
2022-09-22T19:04:55.646Z,14.07
2022-09-22T19:07:42.492Z,14.01
2022-09-22T19:10:13.078Z,13.92
2022-09-22T19:12:42.448Z,13.87
2022-09-22T19:15:16.451Z,13.80
2022-09-22T19:17:46.418Z,13.73
2022-09-22T19:20:18.627Z,13.69
2022-09-22T19:22:49.227Z,13.61
2022-09-22T19:25:18.765Z,13.55
2022-09-22T19:27:47.253Z,13.47
2022-09-22T19:30:17.723Z,13.43
2022-09-22T19:32:49.344Z,13.35
2022-09-22T19:35:19.469Z,13.30
2022-09-22T19:37:47.927Z,13.25
2022-09-22T19:40:18.767Z,13.22
2022-09-22T19:42:48.630Z,13.16
2022-09-22T19:45:17.047Z,13.12
2022-09-22T19:47:46.012Z,13.09
2022-09-22T19:50:14.955Z,13.05
2022-09-22T19:52:44.768Z,13.01
2022-09-22T19:55:13.120Z,12.97
2022-09-22T19:57:42.052Z,12.93
2022-09-22T20:00:17.058Z,12.88
2022-09-22T20:02:45.837Z,12.83
2022-09-22T20:05:22.080Z,12.81
2022-09-22T20:07:51.973Z,12.76
2022-09-22T20:10:22.487Z,12.71
2022-09-22T20:12:51.520Z,12.68
2022-09-22T20:15:20.554Z,12.64
2022-09-22T20:17:49.162Z,12.61
2022-09-22T20:20:19.642Z,12.57
2022-09-22T20:22:50.353Z,12.54
2022-09-22T20:25:23.672Z,12.50
2022-09-22T20:27:51.959Z,12.47
2022-09-22T20:30:20.358Z,12.42
2022-09-22T20:32:50.306Z,12.39
2022-09-22T20:35:21.663Z,12.36
2022-09-22T20:37:51.420Z,12.35
2022-09-22T20:40:23.116Z,12.30
2022-09-22T20:42:54.109Z,12.28
2022-09-22T20:45:24.611Z,12.25
2022-09-22T20:47:53.147Z,12.21
2022-09-22T20:50:22.175Z,12.20
2022-09-22T20:52:50.750Z,12.17
2022-09-22T20:55:19.360Z,12.15
2022-09-22T20:57:49.388Z,12.13
2022-09-22T21:00:17.879Z,12.13
2022-09-22T21:02:47.271Z,12.10
2022-09-22T21:05:15.806Z,12.08
2022-09-22T21:07:44.085Z,12.08
2022-09-22T21:10:30.070Z,12.06
2022-09-22T21:13:00.438Z,12.05
2022-09-22T21:15:29.897Z,12.04
2022-09-22T21:17:58.396Z,12.03
2022-09-22T21:20:27.030Z,12.02
2022-09-22T21:22:55.718Z,12.00
2022-09-22T21:25:24.976Z,11.99
2022-09-22T21:27:53.274Z,11.98
2022-09-22T21:30:22.948Z,11.97
2022-09-22T21:32:51.301Z,11.96
2022-09-22T21:35:19.584Z,11.95
2022-09-22T21:37:47.875Z,11.94
2022-09-22T21:40:17.466Z,11.94
2022-09-22T21:42:45.790Z,11.93
2022-09-22T21:45:14.097Z,11.91
2022-09-22T21:47:44.283Z,11.90
2022-09-22T21:50:12.791Z,11.87
2022-09-22T21:52:41.074Z,11.86
2022-09-22T21:55:09.943Z,11.84
2022-09-22T21:57:38.203Z,11.83
2022-09-22T22:00:08.422Z,11.80
2022-09-22T22:02:54.072Z,11.77
2022-09-22T22:05:23.723Z,11.75
2022-09-22T22:07:51.984Z,11.74
2022-09-22T22:10:20.314Z,11.71
2022-09-22T22:12:48.617Z,11.68
2022-09-22T22:15:17.044Z,11.64
2022-09-22T22:17:45.312Z,11.62
2022-09-22T22:20:13.598Z,11.60
2022-09-22T22:22:43.258Z,11.59
2022-09-22T22:25:17.255Z,11.57
2022-09-22T22:27:45.869Z,11.56
2022-09-22T22:30:14.336Z,11.53
2022-09-22T22:32:43.027Z,11.52
2022-09-22T22:35:11.594Z,11.50
2022-09-22T22:37:39.954Z,11.49
2022-09-22T22:40:10.422Z,11.44
2022-09-22T22:42:38.756Z,11.44
2022-09-22T22:45:07.485Z,11.42
2022-09-22T22:47:35.731Z,11.40
2022-09-22T22:50:04.105Z,11.40
2022-09-22T22:52:32.384Z,11.38
2022-09-22T22:55:00.624Z,11.37
2022-09-22T22:57:30.287Z,11.35
2022-09-22T22:59:58.552Z,11.36
2022-09-22T23:02:26.946Z,11.32
2022-09-22T23:04:58.572Z,11.31
2022-09-22T23:07:27.526Z,11.29
2022-09-22T23:10:06.196Z,11.28
2022-09-22T23:12:39.340Z,11.26
2022-09-22T23:15:09.523Z,11.24
2022-09-22T23:17:37.965Z,11.22
2022-09-22T23:20:08.076Z,11.21
2022-09-22T23:22:36.413Z,11.19
2022-09-22T23:25:05.281Z,11.17
2022-09-22T23:27:33.542Z,11.15
2022-09-22T23:30:03.206Z,11.13
2022-09-22T23:32:31.473Z,11.11
2022-09-22T23:34:59.764Z,11.09
2022-09-22T23:37:28.082Z,11.08
2022-09-22T23:39:56.340Z,11.06
2022-09-22T23:42:24.778Z,11.04
2022-09-22T23:44:53.054Z,11.04
2022-09-22T23:47:22.649Z,11.01
2022-09-22T23:49:50.908Z,10.99
2022-09-22T23:52:19.148Z,10.98
2022-09-22T23:54:47.428Z,10.97
2022-09-22T23:57:15.719Z,10.96
2022-09-22T23:59:44.046Z,10.95
